sensor_id;sensor_type;location;lat;lon;timestamp;temperature;humidity
17307;DHT22;8771;48.048;7.682;2023-04-15T00:01:17;8.60;62.10
17307;DHT22;8771;48.048;7.682;2023-04-15T00:06:21;8.50;62.00
17307;DHT22;8771;48.048;7.682;2023-04-15T00:11:23;8.50;62.10
17307;DHT22;8771;48.048;7.682;2023-04-15T00:16:25;8.50;62.00
17307;DHT22;8771;48.048;7.682;2023-04-15T00:21:29;8.60;61.90
17307;DHT22;8771;48.048;7.682;2023-04-15T00:26:31;8.60;61.70
17307;DHT22;8771;48.048;7.682;2023-04-15T00:31:33;8.80;61.70
17307;DHT22;8771;48.048;7.682;2023-04-15T00:36:36;8.80;61.50
17307;DHT22;8771;48.048;7.682;2023-04-15T00:41:38;9.00;61.50
17307;DHT22;8771;48.048;7.682;2023-04-15T00:46:40;9.10;61.30
17307;DHT22;8771;48.048;7.682;2023-04-15T00:51:45;9.20;61.20
17307;DHT22;8771;48.048;7.682;2023-04-15T00:56:47;9.30;60.90
17307;DHT22;8771;48.048;7.682;2023-04-15T01:01:49;9.40;60.90
17307;DHT22;8771;48.048;7.682;2023-04-15T01:06:53;9.50;60.80
17307;DHT22;8771;48.048;7.682;2023-04-15T01:11:55;9.50;60.90
17307;DHT22;8771;48.048;7.682;2023-04-15T01:16:57;9.50;60.90
17307;DHT22;8771;48.048;7.682;2023-04-15T01:22:01;9.50;60.90
17307;DHT22;8771;48.048;7.682;2023-04-15T01:27:05;9.40;60.90
17307;DHT22;8771;48.048;7.682;2023-04-15T01:32:07;9.50;61.00
17307;DHT22;8771;48.048;7.682;2023-04-15T01:37:08;9.50;61.00
17307;DHT22;8771;48.048;7.682;2023-04-15T01:42:12;9.60;60.90
17307;DHT22;8771;48.048;7.682;2023-04-15T01:47:14;9.60;60.80
17307;DHT22;8771;48.048;7.682;2023-04-15T01:52:15;9.70;60.70
17307;DHT22;8771;48.048;7.682;2023-04-15T01:57:19;9.70;60.80
17307;DHT22;8771;48.048;7.682;2023-04-15T02:02:21;9.70;60.90
17307;DHT22;8771;48.048;7.682;2023-04-15T02:07:23;9.60;60.90
17307;DHT22;8771;48.048;7.682;2023-04-15T02:12:28;9.60;61.00
17307;DHT22;8771;48.048;7.682;2023-04-15T02:17:32;9.60;61.00
17307;DHT22;8771;48.048;7.682;2023-04-15T02:22:34;9.60;61.00
17307;DHT22;8771;48.048;7.682;2023-04-15T02:27:37;9.60;61.00
17307;DHT22;8771;48.048;7.682;2023-04-15T02:32:39;9.60;61.00
17307;DHT22;8771;48.048;7.682;2023-04-15T02:37:44;9.60;61.00
17307;DHT22;8771;48.048;7.682;2023-04-15T02:42:47;9.60;61.10
17307;DHT22;8771;48.048;7.682;2023-04-15T02:47:49;9.50;61.20
17307;DHT22;8771;48.048;7.682;2023-04-15T02:52:51;9.50;61.30
17307;DHT22;8771;48.048;7.682;2023-04-15T02:57:54;9.50;61.30
17307;DHT22;8771;48.048;7.682;2023-04-15T03:03:00;9.50;61.30
17307;DHT22;8771;48.048;7.682;2023-04-15T03:08:02;9.50;61.30
17307;DHT22;8771;48.048;7.682;2023-04-15T03:13:06;9.50;61.20
17307;DHT22;8771;48.048;7.682;2023-04-15T03:18:08;9.60;61.30
17307;DHT22;8771;48.048;7.682;2023-04-15T03:23:10;9.60;61.30
17307;DHT22;8771;48.048;7.682;2023-04-15T03:28:13;9.60;61.40
17307;DHT22;8771;48.048;7.682;2023-04-15T03:33:15;9.50;61.40
17307;DHT22;8771;48.048;7.682;2023-04-15T03:38:17;9.50;61.50
17307;DHT22;8771;48.048;7.682;2023-04-15T03:43:21;9.50;61.50
17307;DHT22;8771;48.048;7.682;2023-04-15T03:48:23;9.50;61.50
17307;DHT22;8771;48.048;7.682;2023-04-15T03:53:24;9.50;61.50
17307;DHT22;8771;48.048;7.682;2023-04-15T03:58:28;9.50;61.50
17307;DHT22;8771;48.048;7.682;2023-04-15T04:03:30;9.50;61.50
17307;DHT22;8771;48.048;7.682;2023-04-15T04:08:33;9.50;61.60
17307;DHT22;8771;48.048;7.682;2023-04-15T04:13:36;9.50;61.60
17307;DHT22;8771;48.048;7.682;2023-04-15T04:18:38;9.50;61.50
17307;DHT22;8771;48.048;7.682;2023-04-15T04:23:39;9.50;61.50
17307;DHT22;8771;48.048;7.682;2023-04-15T04:28:43;9.60;61.60
17307;DHT22;8771;48.048;7.682;2023-04-15T04:33:45;9.60;61.50
17307;DHT22;8771;48.048;7.682;2023-04-15T04:38:46;9.60;61.40
17307;DHT22;8771;48.048;7.682;2023-04-15T04:43:50;9.70;61.40
17307;DHT22;8771;48.048;7.682;2023-04-15T04:48:51;9.70;61.40
17307;DHT22;8771;48.048;7.682;2023-04-15T04:53:53;9.70;61.40
17307;DHT22;8771;48.048;7.682;2023-04-15T04:58:57;9.70;61.30
17307;DHT22;8771;48.048;7.682;2023-04-15T05:03:59;9.80;61.40
17307;DHT22;8771;48.048;7.682;2023-04-15T05:09:01;9.80;61.40
17307;DHT22;8771;48.048;7.682;2023-04-15T05:14:05;9.80;61.40
17307;DHT22;8771;48.048;7.682;2023-04-15T05:19:07;9.80;61.40
17307;DHT22;8771;48.048;7.682;2023-04-15T05:24:09;9.80;61.40
17307;DHT22;8771;48.048;7.682;2023-04-15T05:29:12;9.90;61.40
17307;DHT22;8771;48.048;7.682;2023-04-15T05:34:14;9.90;61.40
17307;DHT22;8771;48.048;7.682;2023-04-15T05:39:17;9.90;61.40
17307;DHT22;8771;48.048;7.682;2023-04-15T05:44:20;10.00;61.40
17307;DHT22;8771;48.048;7.682;2023-04-15T05:49:22;10.10;61.40
17307;DHT22;8771;48.048;7.682;2023-04-15T05:54:24;10.10;61.30
17307;DHT22;8771;48.048;7.682;2023-04-15T05:59:28;10.10;61.20
17307;DHT22;8771;48.048;7.682;2023-04-15T06:04:30;10.30;61.30
17307;DHT22;8771;48.048;7.682;2023-04-15T06:09:32;10.30;61.20
17307;DHT22;8771;48.048;7.682;2023-04-15T06:14:35;10.40;61.20
17307;DHT22;8771;48.048;7.682;2023-04-15T06:19:37;10.50;61.20
17307;DHT22;8771;48.048;7.682;2023-04-15T06:24:39;10.50;61.10
17307;DHT22;8771;48.048;7.682;2023-04-15T06:29:42;10.60;61.10
17307;DHT22;8771;48.048;7.682;2023-04-15T06:34:44;10.60;61.10
17307;DHT22;8771;48.048;7.682;2023-04-15T06:39:46;10.70;61.00
17307;DHT22;8771;48.048;7.682;2023-04-15T06:44:49;10.80;61.10
17307;DHT22;8771;48.048;7.682;2023-04-15T06:49:51;10.80;61.10
17307;DHT22;8771;48.048;7.682;2023-04-15T06:54:54;10.90;61.20
17307;DHT22;8771;48.048;7.682;2023-04-15T06:59:57;11.00;61.90
17307;DHT22;8771;48.048;7.682;2023-04-15T07:04:59;11.00;61.00
17307;DHT22;8771;48.048;7.682;2023-04-15T07:10:01;11.20;61.00
17307;DHT22;8771;48.048;7.682;2023-04-15T07:15:06;11.20;60.90
17307;DHT22;8771;48.048;7.682;2023-04-15T07:20:08;11.30;61.00
17307;DHT22;8771;48.048;7.682;2023-04-15T07:25:10;11.40;61.00
17307;DHT22;8771;48.048;7.682;2023-04-15T07:30:13;11.50;60.90
17307;DHT22;8771;48.048;7.682;2023-04-15T07:35:15;11.60;60.70
17307;DHT22;8771;48.048;7.682;2023-04-15T07:40:17;11.70;60.70
17307;DHT22;8771;48.048;7.682;2023-04-15T07:45:21;11.80;60.70
17307;DHT22;8771;48.048;7.682;2023-04-15T07:50:23;12.00;60.60
17307;DHT22;8771;48.048;7.682;2023-04-15T07:55:25;12.10;60.60
17307;DHT22;8771;48.048;7.682;2023-04-15T08:00:29;12.30;60.40
17307;DHT22;8771;48.048;7.682;2023-04-15T08:05:31;12.40;60.30
17307;DHT22;8771;48.048;7.682;2023-04-15T08:10:33;12.50;60.30
17307;DHT22;8771;48.048;7.682;2023-04-15T08:15:37;12.60;60.30
17307;DHT22;8771;48.048;7.682;2023-04-15T08:20:39;12.70;60.30
17307;DHT22;8771;48.048;7.682;2023-04-15T08:25:41;12.90;60.30
17307;DHT22;8771;48.048;7.682;2023-04-15T08:30:44;12.90;60.20
17307;DHT22;8771;48.048;7.682;2023-04-15T08:35:47;13.10;60.10
17307;DHT22;8771;48.048;7.682;2023-04-15T08:40:49;13.20;60.10
17307;DHT22;8771;48.048;7.682;2023-04-15T08:45:53;13.30;60.00
17307;DHT22;8771;48.048;7.682;2023-04-15T08:50:59;13.40;60.00
17307;DHT22;8771;48.048;7.682;2023-04-15T08:56:04;13.40;60.00
17307;DHT22;8771;48.048;7.682;2023-04-15T09:01:10;13.50;60.20
17307;DHT22;8771;48.048;7.682;2023-04-15T09:06:13;13.50;60.30
17307;DHT22;8771;48.048;7.682;2023-04-15T09:11:18;13.70;60.20
17307;DHT22;8771;48.048;7.682;2023-04-15T09:16:21;13.90;60.10
17307;DHT22;8771;48.048;7.682;2023-04-15T09:21:23;14.20;59.80
17307;DHT22;8771;48.048;7.682;2023-04-15T09:26:31;14.30;59.70
17307;DHT22;8771;48.048;7.682;2023-04-15T09:31:34;14.40;59.70
17307;DHT22;8771;48.048;7.682;2023-04-15T09:36:51;14.60;59.60
17307;DHT22;8771;48.048;7.682;2023-04-15T09:42:06;14.70;59.50
17307;DHT22;8771;48.048;7.682;2023-04-15T09:47:26;14.90;59.50
17307;DHT22;8771;48.048;7.682;2023-04-15T09:52:28;15.00;59.40
17307;DHT22;8771;48.048;7.682;2023-04-15T09:57:34;15.10;59.30
17307;DHT22;8771;48.048;7.682;2023-04-15T10:02:39;15.30;59.30
17307;DHT22;8771;48.048;7.682;2023-04-15T10:07:41;15.50;59.10
17307;DHT22;8771;48.048;7.682;2023-04-15T10:12:44;15.80;58.90
17307;DHT22;8771;48.048;7.682;2023-04-15T10:17:50;16.30;58.60
17307;DHT22;8771;48.048;7.682;2023-04-15T10:22:54;16.70;58.30
17307;DHT22;8771;48.048;7.682;2023-04-15T10:27:56;16.90;58.20
17307;DHT22;8771;48.048;7.682;2023-04-15T10:33:00;17.10;58.10
17307;DHT22;8771;48.048;7.682;2023-04-15T10:38:31;17.20;58.20
17307;DHT22;8771;48.048;7.682;2023-04-15T10:43:33;17.40;58.30
17307;DHT22;8771;48.048;7.682;2023-04-15T10:48:39;17.60;58.10
17307;DHT22;8771;48.048;7.682;2023-04-15T10:53:47;17.90;58.00
17307;DHT22;8771;48.048;7.682;2023-04-15T10:58:49;18.10;57.90
17307;DHT22;8771;48.048;7.682;2023-04-15T11:03:54;18.20;57.90
17307;DHT22;8771;48.048;7.682;2023-04-15T11:08:57;18.30;57.90
17307;DHT22;8771;48.048;7.682;2023-04-15T11:14:02;18.50;84.80
17307;DHT22;8771;48.048;7.682;2023-04-15T11:19:05;18.60;57.90
17307;DHT22;8771;48.048;7.682;2023-04-15T11:24:07;18.60;58.00
17307;DHT22;8771;48.048;7.682;2023-04-15T11:29:16;18.50;58.00
17307;DHT22;8771;48.048;7.682;2023-04-15T11:34:23;18.30;58.30
17307;DHT22;8771;48.048;7.682;2023-04-15T11:39:24;18.20;58.50
17307;DHT22;8771;48.048;7.682;2023-04-15T11:44:26;18.20;58.50
17307;DHT22;8771;48.048;7.682;2023-04-15T11:49:30;18.20;58.40
17307;DHT22;8771;48.048;7.682;2023-04-15T11:54:33;18.30;58.40
17307;DHT22;8771;48.048;7.682;2023-04-15T11:59:41;18.30;58.40
17307;DHT22;8771;48.048;7.682;2023-04-15T12:04:44;18.20;58.40
17307;DHT22;8771;48.048;7.682;2023-04-15T12:09:54;18.20;58.40
17307;DHT22;8771;48.048;7.682;2023-04-15T12:14:56;18.40;58.40
17307;DHT22;8771;48.048;7.682;2023-04-15T12:20:00;18.40;58.30
17307;DHT22;8771;48.048;7.682;2023-04-15T12:25:03;18.50;58.20
17307;DHT22;8771;48.048;7.682;2023-04-15T12:30:06;18.60;58.10
17307;DHT22;8771;48.048;7.682;2023-04-15T12:35:09;18.60;58.10
17307;DHT22;8771;48.048;7.682;2023-04-15T12:40:12;18.60;58.00
17307;DHT22;8771;48.048;7.682;2023-04-15T12:45:14;18.60;58.00
17307;DHT22;8771;48.048;7.682;2023-04-15T12:50:18;18.40;58.20
17307;DHT22;8771;48.048;7.682;2023-04-15T12:55:20;18.50;58.10
17307;DHT22;8771;48.048;7.682;2023-04-15T13:00:22;18.50;58.00
17307;DHT22;8771;48.048;7.682;2023-04-15T13:05:25;18.50;58.00
17307;DHT22;8771;48.048;7.682;2023-04-15T13:10:27;18.50;58.00
17307;DHT22;8771;48.048;7.682;2023-04-15T13:15:30;18.70;57.90
17307;DHT22;8771;48.048;7.682;2023-04-15T13:20:33;19.00;57.50
17307;DHT22;8771;48.048;7.682;2023-04-15T13:25:35;19.00;57.20
17307;DHT22;8771;48.048;7.682;2023-04-15T13:30:37;18.90;57.40
17307;DHT22;8771;48.048;7.682;2023-04-15T13:35:41;19.00;57.30
17307;DHT22;8771;48.048;7.682;2023-04-15T13:40:43;19.20;57.00
17307;DHT22;8771;48.048;7.682;2023-04-15T13:45:46;19.10;57.10
17307;DHT22;8771;48.048;7.682;2023-04-15T13:50:49;19.00;57.30
17307;DHT22;8771;48.048;7.682;2023-04-15T13:55:51;19.10;57.30
17307;DHT22;8771;48.048;7.682;2023-04-15T14:00:53;19.10;57.30
17307;DHT22;8771;48.048;7.682;2023-04-15T14:05:56;18.70;57.50
17307;DHT22;8771;48.048;7.682;2023-04-15T14:10:59;18.50;57.70
17307;DHT22;8771;48.048;7.682;2023-04-15T14:16:01;18.30;57.80
17307;DHT22;8771;48.048;7.682;2023-04-15T14:21:06;18.40;57.70
17307;DHT22;8771;48.048;7.682;2023-04-15T14:26:07;18.60;57.30
17307;DHT22;8771;48.048;7.682;2023-04-15T14:31:09;18.60;57.10
17307;DHT22;8771;48.048;7.682;2023-04-15T14:36:13;18.60;57.10
17307;DHT22;8771;48.048;7.682;2023-04-15T14:41:15;18.60;56.90
17307;DHT22;8771;48.048;7.682;2023-04-15T14:46:17;18.60;56.90
17307;DHT22;8771;48.048;7.682;2023-04-15T14:51:20;18.60;56.80
17307;DHT22;8771;48.048;7.682;2023-04-15T14:56:22;18.60;56.70
17307;DHT22;8771;48.048;7.682;2023-04-15T15:01:24;18.60;56.60
17307;DHT22;8771;48.048;7.682;2023-04-15T15:06:29;18.50;56.60
17307;DHT22;8771;48.048;7.682;2023-04-15T15:11:31;18.50;56.60
17307;DHT22;8771;48.048;7.682;2023-04-15T15:16:33;18.50;56.40
17307;DHT22;8771;48.048;7.682;2023-04-15T15:21:36;18.60;56.30
17307;DHT22;8771;48.048;7.682;2023-04-15T15:26:39;18.60;56.30
17307;DHT22;8771;48.048;7.682;2023-04-15T15:31:41;18.60;56.30
17307;DHT22;8771;48.048;7.682;2023-04-15T15:36:44;18.80;56.30
17307;DHT22;8771;48.048;7.682;2023-04-15T15:41:46;18.80;56.10
17307;DHT22;8771;48.048;7.682;2023-04-15T15:46:49;18.80;56.20
17307;DHT22;8771;48.048;7.682;2023-04-15T15:51:54;19.00;56.00
17307;DHT22;8771;48.048;7.682;2023-04-15T15:56:56;19.00;56.00
17307;DHT22;8771;48.048;7.682;2023-04-15T16:02:18;18.80;56.00
17307;DHT22;8771;48.048;7.682;2023-04-15T16:07:42;18.60;56.20
17307;DHT22;8771;48.048;7.682;2023-04-15T16:13:04;18.50;56.30
17307;DHT22;8771;48.048;7.682;2023-04-15T16:18:26;18.40;56.40
17307;DHT22;8771;48.048;7.682;2023-04-15T16:23:44;18.40;56.40
17307;DHT22;8771;48.048;7.682;2023-04-15T16:28:53;18.40;56.50
17307;DHT22;8771;48.048;7.682;2023-04-15T16:33:56;18.20;56.50
17307;DHT22;8771;48.048;7.682;2023-04-15T16:38:59;18.00;56.70
17307;DHT22;8771;48.048;7.682;2023-04-15T16:44:01;17.90;56.70
17307;DHT22;8771;48.048;7.682;2023-04-15T16:49:03;17.90;56.80
17307;DHT22;8771;48.048;7.682;2023-04-15T16:54:07;17.90;56.80
17307;DHT22;8771;48.048;7.682;2023-04-15T16:59:09;17.90;57.40
17307;DHT22;8771;48.048;7.682;2023-04-15T17:04:11;17.90;56.80
17307;DHT22;8771;48.048;7.682;2023-04-15T17:09:14;17.90;56.80
17307;DHT22;8771;48.048;7.682;2023-04-15T17:14:16;17.90;57.00
17307;DHT22;8771;48.048;7.682;2023-04-15T17:19:18;17.60;57.20
17307;DHT22;8771;48.048;7.682;2023-04-15T17:24:22;17.60;57.30
17307;DHT22;8771;48.048;7.682;2023-04-15T17:29:24;17.50;57.30
17307;DHT22;8771;48.048;7.682;2023-04-15T17:34:27;17.50;57.40
17307;DHT22;8771;48.048;7.682;2023-04-15T17:39:30;17.40;57.50
17307;DHT22;8771;48.048;7.682;2023-04-15T17:44:32;17.30;57.60
17307;DHT22;8771;48.048;7.682;2023-04-15T17:49:34;17.20;57.70
17307;DHT22;8771;48.048;7.682;2023-04-15T17:54:38;17.10;57.80
17307;DHT22;8771;48.048;7.682;2023-04-15T17:59:40;17.00;57.80
17307;DHT22;8771;48.048;7.682;2023-04-15T18:04:43;16.90;57.80
17307;DHT22;8771;48.048;7.682;2023-04-15T18:09:46;16.90;57.90
17307;DHT22;8771;48.048;7.682;2023-04-15T18:14:50;16.80;57.90
17307;DHT22;8771;48.048;7.682;2023-04-15T18:19:52;16.70;57.90
17307;DHT22;8771;48.048;7.682;2023-04-15T18:24:55;16.70;58.00
17307;DHT22;8771;48.048;7.682;2023-04-15T18:29:58;16.50;58.00
17307;DHT22;8771;48.048;7.682;2023-04-15T18:35:01;16.40;58.10
17307;DHT22;8771;48.048;7.682;2023-04-15T18:40:06;16.30;58.20
17307;DHT22;8771;48.048;7.682;2023-04-15T18:45:08;16.20;58.20
17307;DHT22;8771;48.048;7.682;2023-04-15T18:50:10;16.10;58.30
17307;DHT22;8771;48.048;7.682;2023-04-15T18:55:14;16.00;58.40
17307;DHT22;8771;48.048;7.682;2023-04-15T19:00:19;15.90;58.60
17307;DHT22;8771;48.048;7.682;2023-04-15T19:05:21;15.80;58.60
17307;DHT22;8771;48.048;7.682;2023-04-15T19:10:25;15.70;58.60
17307;DHT22;8771;48.048;7.682;2023-04-15T19:15:28;15.70;58.70
17307;DHT22;8771;48.048;7.682;2023-04-15T19:26:12;15.50;98.90
17307;DHT22;8771;48.048;7.682;2023-04-15T19:31:14;15.40;58.80
17307;DHT22;8771;48.048;7.682;2023-04-15T19:36:16;15.20;58.90
17307;DHT22;8771;48.048;7.682;2023-04-15T19:41:20;15.10;59.00
17307;DHT22;8771;48.048;7.682;2023-04-15T19:46:22;14.90;59.00
17307;DHT22;8771;48.048;7.682;2023-04-15T19:51:24;14.70;59.10
17307;DHT22;8771;48.048;7.682;2023-04-15T19:56:30;14.30;59.20
17307;DHT22;8771;48.048;7.682;2023-04-15T20:06:36;13.90;58.80
17307;DHT22;8771;48.048;7.682;2023-04-15T20:11:39;13.70;59.30
17307;DHT22;8771;48.048;7.682;2023-04-15T20:16:41;13.60;59.30
17307;DHT22;8771;48.048;7.682;2023-04-15T20:21:43;13.40;59.30
17307;DHT22;8771;48.048;7.682;2023-04-15T20:26:47;13.30;59.20
17307;DHT22;8771;48.048;7.682;2023-04-15T20:31:52;13.20;59.30
17307;DHT22;8771;48.048;7.682;2023-04-15T20:36:55;13.10;59.30
17307;DHT22;8771;48.048;7.682;2023-04-15T20:41:59;12.90;59.40
17307;DHT22;8771;48.048;7.682;2023-04-15T20:47:01;12.80;59.50
17307;DHT22;8771;48.048;7.682;2023-04-15T20:52:05;12.70;59.50
17307;DHT22;8771;48.048;7.682;2023-04-15T20:57:09;12.60;59.60
17307;DHT22;8771;48.048;7.682;2023-04-15T21:02:11;12.60;59.70
17307;DHT22;8771;48.048;7.682;2023-04-15T21:07:13;12.50;59.60
17307;DHT22;8771;48.048;7.682;2023-04-15T21:12:16;12.50;59.70
17307;DHT22;8771;48.048;7.682;2023-04-15T21:17:18;12.40;59.70
17307;DHT22;8771;48.048;7.682;2023-04-15T21:22:20;12.30;59.70
17307;DHT22;8771;48.048;7.682;2023-04-15T21:27:24;12.20;59.70
17307;DHT22;8771;48.048;7.682;2023-04-15T21:32:26;12.10;59.70
17307;DHT22;8771;48.048;7.682;2023-04-15T21:37:30;12.10;59.80
17307;DHT22;8771;48.048;7.682;2023-04-15T21:42:33;12.00;59.80
17307;DHT22;8771;48.048;7.682;2023-04-15T21:47:35;11.90;59.80
17307;DHT22;8771;48.048;7.682;2023-04-15T21:52:37;11.90;59.90
17307;DHT22;8771;48.048;7.682;2023-04-15T21:57:40;11.90;60.00
17307;DHT22;8771;48.048;7.682;2023-04-15T22:02:42;11.80;60.00
17307;DHT22;8771;48.048;7.682;2023-04-15T22:07:44;11.70;60.10
17307;DHT22;8771;48.048;7.682;2023-04-15T22:12:47;11.60;60.20
17307;DHT22;8771;48.048;7.682;2023-04-15T22:17:49;11.60;61.10
17307;DHT22;8771;48.048;7.682;2023-04-15T22:22:51;11.60;60.40
17307;DHT22;8771;48.048;7.682;2023-04-15T22:27:55;11.60;60.60
17307;DHT22;8771;48.048;7.682;2023-04-15T22:32:57;11.60;60.60
17307;DHT22;8771;48.048;7.682;2023-04-15T22:37:59;11.60;60.70
17307;DHT22;8771;48.048;7.682;2023-04-15T22:43:02;11.60;60.70
17307;DHT22;8771;48.048;7.682;2023-04-15T22:48:04;11.60;60.80
17307;DHT22;8771;48.048;7.682;2023-04-15T22:53:06;11.50;60.80
17307;DHT22;8771;48.048;7.682;2023-04-15T22:58:11;11.50;60.80
17307;DHT22;8771;48.048;7.682;2023-04-15T23:03:14;11.60;61.00
17307;DHT22;8771;48.048;7.682;2023-04-15T23:08:17;11.60;61.00
17307;DHT22;8771;48.048;7.682;2023-04-15T23:13:20;11.50;61.00
17307;DHT22;8771;48.048;7.682;2023-04-15T23:18:22;11.50;61.10
17307;DHT22;8771;48.048;7.682;2023-04-15T23:23:24;11.40;61.10
17307;DHT22;8771;48.048;7.682;2023-04-15T23:28:28;11.40;61.20
17307;DHT22;8771;48.048;7.682;2023-04-15T23:33:30;11.40;61.30
17307;DHT22;8771;48.048;7.682;2023-04-15T23:38:32;11.40;61.30
17307;DHT22;8771;48.048;7.682;2023-04-15T23:43:36;11.40;61.40
17307;DHT22;8771;48.048;7.682;2023-04-15T23:48:38;11.30;61.30
17307;DHT22;8771;48.048;7.682;2023-04-15T23:53:40;11.30;61.40
17307;DHT22;8771;48.048;7.682;2023-04-15T23:58:43;11.30;61.40
